createdAt,value
2022-11-14T00:02:21.613Z,7.83
2022-11-14T00:05:10.372Z,7.80
2022-11-14T00:07:56.595Z,7.84
2022-11-14T00:10:43.238Z,7.89
2022-11-14T00:13:29.738Z,7.89
2022-11-14T00:16:16.070Z,7.80
2022-11-14T00:19:02.159Z,7.86
2022-11-14T00:21:49.806Z,7.83
2022-11-14T00:24:35.889Z,7.79
2022-11-14T00:27:22.116Z,7.83
2022-11-14T00:47:11.309Z,7.80
2022-11-14T00:49:57.441Z,7.68
2022-11-14T00:52:43.644Z,7.68
2022-11-14T00:55:29.781Z,7.58
2022-11-14T00:58:15.799Z,7.57
2022-11-14T01:01:02.047Z,7.52
2022-11-14T01:03:51.084Z,7.40
2022-11-14T01:06:37.444Z,7.39
2022-11-14T01:09:23.632Z,7.37
2022-11-14T01:12:10.491Z,7.45
2022-11-14T01:14:56.451Z,7.41
2022-11-14T01:17:42.688Z,7.48
2022-11-14T01:20:30.115Z,7.47
2022-11-14T01:23:17.551Z,7.37
2022-11-14T01:26:05.133Z,7.35
2022-11-14T01:41:23.849Z,7.29
2022-11-14T01:44:14.483Z,7.31
2022-11-14T01:47:00.920Z,7.32
2022-11-14T01:49:49.719Z,7.32
2022-11-14T01:52:38.745Z,7.31
2022-11-14T01:55:27.319Z,7.36
2022-11-14T01:58:16.550Z,7.29
2022-11-14T02:01:04.047Z,7.32
2022-11-14T02:03:54.038Z,7.30
2022-11-14T02:06:41.382Z,7.32
2022-11-14T02:09:29.497Z,7.28
2022-11-14T02:12:18.845Z,7.27
2022-11-14T02:42:06.793Z,7.01
2022-11-14T02:44:54.429Z,6.90
2022-11-14T02:47:40.699Z,6.95
2022-11-14T02:50:26.831Z,6.99
2022-11-14T02:53:12.928Z,6.97
2022-11-14T02:55:58.979Z,6.98
2022-11-14T02:58:45.179Z,6.87
2022-11-14T03:01:32.750Z,6.96
2022-11-14T03:04:19.175Z,7.01
2022-11-14T03:07:05.401Z,6.96
2022-11-14T03:09:52.224Z,6.84
2022-11-14T03:12:38.563Z,6.93
2022-11-14T03:15:25.475Z,6.96
2022-11-14T03:47:56.994Z,6.87
2022-11-14T03:50:44.777Z,6.90
2022-11-14T03:53:31.123Z,6.88
2022-11-14T03:56:17.360Z,6.86
2022-11-14T03:59:03.477Z,6.86
2022-11-14T04:01:49.855Z,6.87
2022-11-14T04:04:37.619Z,6.89
2022-11-14T04:07:23.985Z,6.82
2022-11-14T04:10:10.550Z,6.79
2022-11-14T04:12:56.903Z,6.85
2022-11-14T04:15:43.139Z,6.80
2022-11-14T04:18:29.625Z,6.85
2022-11-14T04:21:17.320Z,6.86
2022-11-14T04:24:07.160Z,6.78
2022-11-14T04:26:57.147Z,6.79
2022-11-14T04:29:43.345Z,6.81
2022-11-14T04:32:29.682Z,6.80
2022-11-14T04:35:16.283Z,6.74
2022-11-14T04:38:04.368Z,6.69
2022-11-14T04:40:51.348Z,6.75
2022-11-14T04:43:37.865Z,6.78
2022-11-14T04:46:24.151Z,6.66
2022-11-14T04:49:10.390Z,6.75
2022-11-14T04:51:56.422Z,6.74
2022-11-14T04:54:43.859Z,6.79
2022-11-14T04:57:30.125Z,6.75
2022-11-14T05:00:17.123Z,6.71
2022-11-14T05:03:03.379Z,6.70
2022-11-14T05:05:49.441Z,6.77
2022-11-14T05:08:35.811Z,6.76
2022-11-14T05:11:28.808Z,6.72
2022-11-14T05:14:15.512Z,6.76
2022-11-14T05:17:01.820Z,6.80
2022-11-14T05:19:48.060Z,6.89
2022-11-14T05:22:34.105Z,6.90
2022-11-14T05:25:20.332Z,6.86
2022-11-14T05:28:07.670Z,6.91
2022-11-14T05:30:53.757Z,6.91
2022-11-14T05:33:40.182Z,6.92
2022-11-14T05:36:26.612Z,6.92
2022-11-14T05:39:12.677Z,6.89
2022-11-14T05:41:58.862Z,6.79
2022-11-14T05:44:46.306Z,6.83
2022-11-14T05:47:32.363Z,6.75
2022-11-14T05:50:18.478Z,6.79
2022-11-14T05:53:04.932Z,6.77
2022-11-14T05:55:51.225Z,6.77
2022-11-14T05:58:37.989Z,6.75
2022-11-14T06:01:25.582Z,6.71
2022-11-14T06:04:14.021Z,6.72
2022-11-14T06:07:00.658Z,6.59
2022-11-14T06:09:46.968Z,6.65
2022-11-14T06:12:33.327Z,6.63
2022-11-14T06:15:20.010Z,6.70
2022-11-14T06:18:07.666Z,6.67
2022-11-14T06:20:53.678Z,6.68
2022-11-14T06:23:40.129Z,6.71
2022-11-14T06:26:30.104Z,6.63
2022-11-14T06:29:16.205Z,6.60
2022-11-14T06:32:02.497Z,6.60
2022-11-14T06:34:50.183Z,6.58
2022-11-14T06:37:36.938Z,6.58
2022-11-14T06:40:23.121Z,6.65
2022-11-14T06:43:09.306Z,6.64
2022-11-14T06:45:55.755Z,6.65
2022-11-14T06:48:43.489Z,6.65
2022-11-14T06:51:31.329Z,6.60
2022-11-14T06:54:17.488Z,6.57
2022-11-14T06:57:03.758Z,6.58
2022-11-14T06:59:49.982Z,6.59
2022-11-14T07:02:36.166Z,6.63
2022-11-14T07:05:22.938Z,6.67
2022-11-14T07:08:10.803Z,6.74
2022-11-14T07:11:04.622Z,6.81
2022-11-14T07:13:50.869Z,6.99
2022-11-14T07:16:37.467Z,7.15
2022-11-14T07:19:23.498Z,7.31
2022-11-14T07:22:09.734Z,7.43
2022-11-14T07:24:57.230Z,7.56
2022-11-14T07:27:43.361Z,7.63
2022-11-14T07:30:29.521Z,7.74
2022-11-14T07:33:15.537Z,7.79
2022-11-14T07:36:02.302Z,7.81
2022-11-14T07:38:48.543Z,7.87
2022-11-14T07:41:36.050Z,7.91
2022-11-14T07:44:22.204Z,7.96
2022-11-14T07:47:08.452Z,8.00
2022-11-14T07:49:54.629Z,8.04
2022-11-14T07:52:41.007Z,8.10
2022-11-14T07:55:27.103Z,8.11
2022-11-14T07:58:14.744Z,8.19
2022-11-14T08:01:02.286Z,8.22
2022-11-14T08:03:48.792Z,8.26
2022-11-14T08:06:34.902Z,8.30
2022-11-14T08:09:23.127Z,8.29
2022-11-14T08:12:09.291Z,8.37
2022-11-14T08:14:56.984Z,8.36
2022-11-14T08:17:43.259Z,8.45
2022-11-14T08:20:30.002Z,8.50
2022-11-14T08:23:17.691Z,8.53
2022-11-14T08:26:04.421Z,8.53
2022-11-14T08:28:54.024Z,8.61
2022-11-14T08:31:41.846Z,8.61
2022-11-14T08:34:29.242Z,8.65
2022-11-14T08:37:16.094Z,8.69
2022-11-14T08:40:02.861Z,8.73
2022-11-14T08:42:48.953Z,8.71
2022-11-14T08:45:37.952Z,8.77
2022-11-14T08:48:25.784Z,8.78
2022-11-14T08:51:12.199Z,8.79
2022-11-14T08:53:58.253Z,8.83
2022-11-14T08:56:44.627Z,8.83
2022-11-14T08:59:34.244Z,8.80
2022-11-14T09:02:20.490Z,8.77
2022-11-14T09:05:09.056Z,8.83
2022-11-14T09:07:55.607Z,8.87
2022-11-14T09:10:42.019Z,8.79
2022-11-14T09:13:28.684Z,8.85
2022-11-14T09:16:15.252Z,8.84
2022-11-14T09:19:01.507Z,8.89
2022-11-14T09:21:49.073Z,8.92
2022-11-14T09:24:35.329Z,8.97
2022-11-14T09:27:21.444Z,8.90
2022-11-14T09:30:08.596Z,8.99
2022-11-14T09:33:00.940Z,9.03
2022-11-14T09:35:47.451Z,9.10
2022-11-14T09:38:38.695Z,9.13
2022-11-14T09:41:27.439Z,9.26
2022-11-14T09:44:39.655Z,9.27
2022-11-14T09:47:30.502Z,9.27
2022-11-14T09:50:25.642Z,9.33
2022-11-14T09:53:21.379Z,9.34
2022-11-14T09:56:12.163Z,9.38
2022-11-14T09:58:58.899Z,9.38
2022-11-14T10:01:52.865Z,9.51
2022-11-14T10:04:57.093Z,9.49
2022-11-14T10:08:10.931Z,9.55
2022-11-14T10:11:03.224Z,9.57
2022-11-14T10:14:20.926Z,9.56
2022-11-14T10:17:21.130Z,9.69
2022-11-14T10:20:21.143Z,9.67
2022-11-14T10:23:18.736Z,9.69
2022-11-14T10:26:15.119Z,9.83
2022-11-14T10:29:32.549Z,9.96
2022-11-14T10:32:31.662Z,10.05
2022-11-14T10:35:20.989Z,10.03
2022-11-14T10:38:15.550Z,10.02
2022-11-14T10:41:05.776Z,10.02
2022-11-14T10:43:54.091Z,10.06
2022-11-14T10:46:46.576Z,10.06
2022-11-14T10:49:36.977Z,10.15
2022-11-14T10:52:34.816Z,10.16
2022-11-14T10:55:37.191Z,10.15
2022-11-14T10:58:28.352Z,10.22
2022-11-14T11:01:34.476Z,10.26
2022-11-14T11:04:26.427Z,10.29
2022-11-14T11:07:42.825Z,10.32
2022-11-14T11:10:46.822Z,10.33
2022-11-14T11:13:35.930Z,10.36
2022-11-14T11:16:24.505Z,10.42
2022-11-14T11:19:24.991Z,10.46
2022-11-14T11:22:29.557Z,10.51
2022-11-14T11:25:27.866Z,10.45
2022-11-14T11:28:16.202Z,10.46
2022-11-14T11:31:05.089Z,10.41
2022-11-14T11:33:51.417Z,10.35
2022-11-14T11:36:44.905Z,10.36
2022-11-14T11:39:34.359Z,10.44
2022-11-14T11:42:25.158Z,10.49
2022-11-14T11:45:18.015Z,10.57
2022-11-14T11:48:14.954Z,10.64
2022-11-14T11:51:03.959Z,10.61
2022-11-14T11:53:59.677Z,10.61
2022-11-14T11:56:51.558Z,10.65
2022-11-14T11:59:44.777Z,10.61
2022-11-14T12:02:31.657Z,10.69
2022-11-14T12:05:22.912Z,10.69
2022-11-14T12:08:21.309Z,10.68
2022-11-14T12:11:15.566Z,10.77
2022-11-14T12:14:23.361Z,10.85
2022-11-14T12:17:31.978Z,10.84
2022-11-14T12:20:36.330Z,10.78
2022-11-14T12:23:48.734Z,10.78
2022-11-14T12:27:00.544Z,10.84
2022-11-14T12:30:05.324Z,10.89
2022-11-14T12:32:55.377Z,10.90
2022-11-14T12:35:51.099Z,10.82
2022-11-14T12:38:46.547Z,10.83
2022-11-14T12:41:35.451Z,10.90
2022-11-14T12:44:35.249Z,10.92
2022-11-14T12:47:23.601Z,10.87
2022-11-14T12:50:40.766Z,10.83
2022-11-14T12:53:46.107Z,10.77
2022-11-14T12:56:55.227Z,10.65
2022-11-14T12:59:55.466Z,10.60
2022-11-14T13:03:15.733Z,10.62
2022-11-14T13:06:08.566Z,10.55
2022-11-14T13:09:32.070Z,10.46
2022-11-14T13:12:47.311Z,10.53
2022-11-14T13:15:55.499Z,10.55
2022-11-14T13:19:11.019Z,10.57
2022-11-14T13:22:38.049Z,10.58
2022-11-14T13:25:25.071Z,10.57
2022-11-14T13:28:45.395Z,10.58
2022-11-14T13:31:48.076Z,10.58
2022-11-14T13:34:41.563Z,10.61
2022-11-14T13:37:43.955Z,10.62
2022-11-14T13:40:35.867Z,10.60
2022-11-14T13:43:32.107Z,10.58
2022-11-14T13:46:32.218Z,10.66
2022-11-14T13:49:37.096Z,10.65
2022-11-14T13:52:29.243Z,10.64
2022-11-14T13:55:31.432Z,10.71
2022-11-14T13:58:29.310Z,10.58
2022-11-14T14:01:34.610Z,10.68
2022-11-14T14:04:42.588Z,10.65
2022-11-14T14:07:45.700Z,10.65
2022-11-14T14:10:41.247Z,10.67
2022-11-14T14:13:43.969Z,10.62
2022-11-14T14:16:43.037Z,10.62
2022-11-14T14:19:44.354Z,10.65
2022-11-14T14:22:38.638Z,10.65
2022-11-14T14:25:31.839Z,10.65
2022-11-14T14:28:26.283Z,10.50
2022-11-14T14:31:19.892Z,10.69
2022-11-14T14:34:22.812Z,10.67
2022-11-14T14:37:21.462Z,10.60
2022-11-14T14:40:25.512Z,10.68
2022-11-14T14:43:25.813Z,10.67
2022-11-14T14:46:12.366Z,10.69
2022-11-14T14:49:04.633Z,10.34
2022-11-14T14:51:58.252Z,10.65
2022-11-14T14:54:55.272Z,10.55
2022-11-14T14:57:41.980Z,10.60
2022-11-14T15:00:29.675Z,10.56
2022-11-14T15:03:18.206Z,10.67
2022-11-14T15:06:07.649Z,10.68
2022-11-14T15:08:54.177Z,10.67
2022-11-14T15:11:44.286Z,10.67
2022-11-14T15:14:33.260Z,10.64
2022-11-14T15:17:20.022Z,10.58
2022-11-14T15:20:22.967Z,10.60
2022-11-14T15:23:21.539Z,10.53
2022-11-14T15:26:14.747Z,10.33
2022-11-14T15:29:18.281Z,10.58
2022-11-14T15:32:10.639Z,10.40
2022-11-14T15:35:11.359Z,10.55
2022-11-14T15:38:29.235Z,10.57
2022-11-14T15:41:20.621Z,10.55
2022-11-14T15:44:07.132Z,10.58
2022-11-14T15:46:54.713Z,10.63
2022-11-14T15:49:41.247Z,10.63
2022-11-14T15:52:33.558Z,10.65
2022-11-14T15:55:22.384Z,10.61
2022-11-14T16:01:22.794Z,10.56
2022-11-14T16:04:15.199Z,10.54
2022-11-14T16:07:01.739Z,10.45
2022-11-14T16:09:49.197Z,10.53
2022-11-14T16:12:35.659Z,10.47
2022-11-14T16:15:23.388Z,10.51
2022-11-14T16:18:09.618Z,10.61
2022-11-14T16:21:00.241Z,10.64
2022-11-14T16:23:46.455Z,10.63
2022-11-14T16:26:33.063Z,10.62
2022-11-14T16:29:20.221Z,10.62
2022-11-14T16:32:06.805Z,10.63
2022-11-14T16:34:52.875Z,10.44
2022-11-14T16:37:40.501Z,10.63
2022-11-14T16:40:28.957Z,10.62
2022-11-14T16:43:18.967Z,10.62
2022-11-14T16:46:08.563Z,10.61
2022-11-14T16:48:55.960Z,10.56
2022-11-14T16:51:50.512Z,10.56
2022-11-14T16:54:38.980Z,10.54
2022-11-14T16:57:25.891Z,10.61
2022-11-14T17:00:17.348Z,10.63
2022-11-14T17:03:03.954Z,10.56
2022-11-14T17:05:52.240Z,10.55
2022-11-14T17:08:38.890Z,10.50
2022-11-14T17:11:28.010Z,10.44
2022-11-14T17:14:14.278Z,10.55
2022-11-14T17:17:03.525Z,10.37
2022-11-14T17:19:50.075Z,10.55
2022-11-14T17:22:36.376Z,10.51
2022-11-14T17:25:22.841Z,10.37
2022-11-14T17:28:10.677Z,10.58
2022-11-14T17:30:56.731Z,10.55
2022-11-14T17:33:43.230Z,10.51
2022-11-14T17:36:31.534Z,10.51
2022-11-14T17:39:17.625Z,10.49
2022-11-14T17:42:03.789Z,10.40
2022-11-14T17:44:51.664Z,10.54
2022-11-14T17:47:38.071Z,10.56
2022-11-14T17:50:24.304Z,10.59
2022-11-14T17:53:10.587Z,10.59
2022-11-14T17:55:57.735Z,10.60
2022-11-14T17:58:44.694Z,10.62
2022-11-14T18:01:32.552Z,10.61
2022-11-14T18:04:19.119Z,10.64
2022-11-14T18:07:05.596Z,10.64
2022-11-14T18:09:52.200Z,10.64
2022-11-14T18:12:38.298Z,10.60
2022-11-14T18:15:27.945Z,10.62
2022-11-14T18:18:15.955Z,10.57
2022-11-14T18:21:07.714Z,10.51
2022-11-14T18:23:55.732Z,10.54
2022-11-14T18:26:42.200Z,10.51
2022-11-14T18:29:28.537Z,10.50
2022-11-14T18:32:15.604Z,10.31
2022-11-14T18:35:03.138Z,9.99
2022-11-14T18:37:49.627Z,10.36
2022-11-14T18:40:35.905Z,10.36
2022-11-14T18:43:23.405Z,10.33
2022-11-14T18:46:12.648Z,10.30
2022-11-14T18:49:02.328Z,10.26
2022-11-14T18:52:01.048Z,10.18
2022-11-14T18:54:50.403Z,10.28
2022-11-14T18:57:36.596Z,10.19
2022-11-14T19:00:25.597Z,10.25
2022-11-14T19:03:14.463Z,10.26
2022-11-14T19:06:03.078Z,10.22
2022-11-14T19:08:50.959Z,10.21
2022-11-14T19:11:57.142Z,10.30
2022-11-14T19:14:43.799Z,10.29
2022-11-14T19:17:30.253Z,10.30
2022-11-14T19:20:16.741Z,10.27
2022-11-14T19:23:03.218Z,10.25
2022-11-14T19:25:50.660Z,10.26
2022-11-14T19:28:36.827Z,10.23
2022-11-14T19:31:24.155Z,10.30
2022-11-14T19:34:11.080Z,10.34
2022-11-14T19:37:00.695Z,10.30
2022-11-14T19:39:47.946Z,10.31
2022-11-14T19:42:35.730Z,10.33
2022-11-14T19:45:21.869Z,10.29
2022-11-14T19:48:07.876Z,10.31
2022-11-14T19:51:00.344Z,10.31
2022-11-14T19:53:47.359Z,10.31
2022-11-14T19:56:33.773Z,10.27
2022-11-14T19:59:24.404Z,10.27
2022-11-14T20:02:14.148Z,10.16
2022-11-14T20:05:00.771Z,10.16
2022-11-14T20:07:46.921Z,10.24
2022-11-14T20:10:47.290Z,10.25
2022-11-14T20:13:35.220Z,10.32
2022-11-14T20:16:24.661Z,10.28
2022-11-14T20:19:11.847Z,10.25
2022-11-14T20:21:58.485Z,10.23
2022-11-14T20:24:44.815Z,10.18
2022-11-14T20:27:31.195Z,10.22
2022-11-14T20:30:17.515Z,10.21
2022-11-14T20:33:05.586Z,10.26
2022-11-14T20:35:52.202Z,10.28
2022-11-14T20:38:38.625Z,10.32
2022-11-14T20:41:25.645Z,10.07
2022-11-14T20:44:12.155Z,10.32
2022-11-14T20:46:58.511Z,10.32
2022-11-14T20:49:46.868Z,10.30
2022-11-14T20:52:33.688Z,10.32
2022-11-14T20:55:19.744Z,10.31
2022-11-14T20:58:06.065Z,10.23
2022-11-14T21:00:52.985Z,10.36
2022-11-14T21:03:39.946Z,10.36
2022-11-14T21:06:27.893Z,10.41
2022-11-14T21:09:14.311Z,10.41
2022-11-14T21:12:00.696Z,10.46
2022-11-14T21:14:46.952Z,10.44
2022-11-14T21:17:33.072Z,10.46
2022-11-14T21:20:19.198Z,10.48
2022-11-14T21:23:06.862Z,10.47
2022-11-14T21:25:53.017Z,10.48
2022-11-14T21:28:41.129Z,10.44
2022-11-14T21:31:31.482Z,10.49
2022-11-14T21:34:18.475Z,10.52
2022-11-14T21:37:05.004Z,10.52
2022-11-14T21:39:52.408Z,10.55
2022-11-14T21:42:39.774Z,10.57
2022-11-14T21:45:26.176Z,10.61
2022-11-14T21:48:12.105Z,10.61
2022-11-14T21:51:04.793Z,10.57
2022-11-14T21:53:54.737Z,10.61
2022-11-14T21:56:42.267Z,10.61
2022-11-14T21:59:29.045Z,10.67
2022-11-14T22:02:32.716Z,10.66
2022-11-14T22:05:19.198Z,10.66
2022-11-14T22:08:05.874Z,10.68
2022-11-14T22:10:51.953Z,10.72
2022-11-14T22:13:39.510Z,10.73
2022-11-14T22:16:26.513Z,10.74
2022-11-14T22:19:12.735Z,10.72
2022-11-14T22:21:58.861Z,10.75
2022-11-14T22:24:45.009Z,10.71
2022-11-14T22:27:31.093Z,10.76
2022-11-14T22:30:18.744Z,10.78
2022-11-14T22:33:05.330Z,10.77
2022-11-14T22:35:51.546Z,10.82
2022-11-14T22:38:38.398Z,10.82
2022-11-14T22:41:31.767Z,10.86
2022-11-14T22:44:19.447Z,10.89
2022-11-14T22:47:06.994Z,10.91
2022-11-14T22:49:53.081Z,10.93
2022-11-14T22:52:39.244Z,10.94
2022-11-14T22:55:25.243Z,10.93
2022-11-14T22:58:11.424Z,10.96
2022-11-14T23:00:57.688Z,10.96
2022-11-14T23:03:45.485Z,10.99
2022-11-14T23:06:33.934Z,11.02
2022-11-14T23:09:20.280Z,11.03
2022-11-14T23:12:06.997Z,11.06
2022-11-14T23:14:53.357Z,11.06
2022-11-14T23:17:39.541Z,11.03
2022-11-14T23:20:27.322Z,11.06
2022-11-14T23:23:15.462Z,11.09
2022-11-14T23:26:05.155Z,11.12
2022-11-14T23:28:51.961Z,11.12
2022-11-14T23:31:38.112Z,11.14
2022-11-14T23:34:24.955Z,11.15
2022-11-14T23:37:12.726Z,11.14
2022-11-14T23:39:58.981Z,11.17
2022-11-14T23:42:45.465Z,11.19
2022-11-14T23:45:31.813Z,11.20
2022-11-14T23:48:19.790Z,11.24
2022-11-14T23:51:06.309Z,11.24
2022-11-14T23:53:54.000Z,11.28
2022-11-14T23:56:40.236Z,11.30
2022-11-14T23:59:26.237Z,11.32
